createdAt,value
2019-05-07T00:00:03.599Z,2.9
2019-05-07T00:01:03.092Z,3
2019-05-07T00:02:03.388Z,2.9
2019-05-07T00:03:03.520Z,3.1
2019-05-07T00:04:03.018Z,3
2019-05-07T00:05:03.240Z,2.9
2019-05-07T00:06:03.108Z,3.1
2019-05-07T00:07:02.826Z,3.2
2019-05-07T00:08:03.622Z,3.3
2019-05-07T00:09:03.361Z,3.4
2019-05-07T00:10:03.591Z,3.4
2019-05-07T00:11:03.275Z,3.4
2019-05-07T00:12:05.390Z,3.3
2019-05-07T00:13:02.695Z,3.3
2019-05-07T00:14:03.478Z,3.4
2019-05-07T00:15:04.855Z,3.4
2019-05-07T00:16:03.764Z,3.4
2019-05-07T00:17:04.785Z,3.4
2019-05-07T00:18:03.799Z,3.4
2019-05-07T00:19:03.416Z,3.5
2019-05-07T00:20:03.595Z,3.6
2019-05-07T00:21:03.731Z,3.5
2019-05-07T00:22:03.505Z,3.5
2019-05-07T00:23:03.343Z,3.6
2019-05-07T00:24:03.455Z,3.6
2019-05-07T00:25:03.338Z,3.6
2019-05-07T00:26:03.717Z,3.6
2019-05-07T00:27:03.141Z,3.6
2019-05-07T00:28:03.547Z,3.6
2019-05-07T00:29:03.208Z,3.6
2019-05-07T00:30:03.257Z,3.5
2019-05-07T00:31:03.169Z,3.5
2019-05-07T00:32:03.242Z,3.5
2019-05-07T00:33:03.127Z,3.4
2019-05-07T00:34:03.005Z,3.3
2019-05-07T00:35:02.869Z,3.2
2019-05-07T00:36:03.028Z,2.9
2019-05-07T00:37:02.750Z,2.9
2019-05-07T00:38:02.713Z,2.9
2019-05-07T00:39:03.094Z,2.9
2019-05-07T00:40:03.142Z,2.9
2019-05-07T00:41:03.201Z,3
2019-05-07T00:42:03.268Z,2.9
2019-05-07T00:43:03.373Z,2.9
2019-05-07T00:44:03.405Z,3
2019-05-07T00:45:23.725Z,3.1
2019-05-07T00:46:02.842Z,3.1
2019-05-07T00:47:02.589Z,3
2019-05-07T00:48:03.114Z,3
2019-05-07T00:49:03.765Z,3
2019-05-07T00:50:03.525Z,3.1
2019-05-07T00:51:03.388Z,3.1
2019-05-07T00:52:03.656Z,3.2
2019-05-07T00:53:03.047Z,3.3
2019-05-07T00:54:03.546Z,3.2
2019-05-07T00:55:03.369Z,3.1
2019-05-07T00:56:03.261Z,3
2019-05-07T00:57:03.349Z,2.9
2019-05-07T00:58:03.081Z,2.9
2019-05-07T00:59:03.380Z,2.9
2019-05-07T01:00:03.370Z,2.9
2019-05-07T01:01:03.263Z,2.9
2019-05-07T01:02:02.822Z,2.9
2019-05-07T01:03:03.708Z,3
2019-05-07T01:04:03.179Z,3
2019-05-07T01:05:03.355Z,3
2019-05-07T01:06:03.016Z,3.1
2019-05-07T01:07:03.066Z,3.1
2019-05-07T01:08:03.008Z,3
2019-05-07T01:09:03.447Z,2.9
2019-05-07T01:10:02.985Z,2.9
2019-05-07T01:11:03.035Z,2.9
2019-05-07T01:12:03.362Z,2.8
2019-05-07T01:13:02.973Z,2.8
2019-05-07T01:14:03.181Z,2.8
2019-05-07T01:15:03.876Z,2.8
2019-05-07T01:16:02.808Z,2.7
2019-05-07T01:17:03.708Z,2.8
2019-05-07T01:18:03.740Z,2.8
2019-05-07T01:19:03.598Z,2.7
2019-05-07T01:20:03.618Z,2.7
2019-05-07T01:21:03.760Z,2.7
2019-05-07T01:22:03.422Z,2.6
2019-05-07T01:23:03.732Z,2.6
2019-05-07T01:24:03.592Z,2.5
2019-05-07T01:25:03.552Z,2.6
2019-05-07T01:26:03.274Z,2.5
2019-05-07T01:27:03.516Z,2.5
2019-05-07T01:28:03.160Z,2.5
2019-05-07T01:29:03.648Z,2.6
2019-05-07T01:30:03.434Z,2.4
2019-05-07T01:31:03.672Z,2.4
2019-05-07T01:32:03.483Z,2.4
2019-05-07T01:33:03.480Z,2.4
2019-05-07T01:34:03.543Z,2.4
2019-05-07T01:35:03.323Z,2.4
2019-05-07T01:36:03.531Z,2.3
2019-05-07T01:37:03.232Z,2.3
2019-05-07T01:38:03.454Z,2.2
2019-05-07T01:39:03.150Z,2.2
2019-05-07T01:40:03.446Z,2.1
2019-05-07T01:41:03.500Z,2
2019-05-07T01:42:03.430Z,1.8
2019-05-07T01:43:02.934Z,1.8
2019-05-07T01:44:03.234Z,1.8
2019-05-07T01:45:03.150Z,1.9
2019-05-07T01:46:03.443Z,1.9
2019-05-07T01:47:03.269Z,1.9
2019-05-07T01:48:04.557Z,1.8
2019-05-07T01:49:03.251Z,1.7
2019-05-07T01:50:03.354Z,1.6
2019-05-07T01:51:03.655Z,1.7
2019-05-07T01:52:02.785Z,1.7
2019-05-07T01:53:04.050Z,1.7
2019-05-07T01:54:02.786Z,1.7
2019-05-07T01:55:03.769Z,1.7
2019-05-07T01:56:03.642Z,1.7
2019-05-07T01:57:03.756Z,1.8
2019-05-07T01:58:04.968Z,1.7
2019-05-07T01:59:02.699Z,1.8
2019-05-07T02:00:03.214Z,1.8
2019-05-07T02:01:03.457Z,1.8
2019-05-07T02:02:03.151Z,1.8
2019-05-07T02:03:03.715Z,1.9
2019-05-07T02:04:03.532Z,1.9
2019-05-07T02:05:03.893Z,1.8
2019-05-07T02:06:03.511Z,1.8
2019-05-07T02:07:03.268Z,1.8
2019-05-07T02:08:03.671Z,1.8
2019-05-07T02:09:03.518Z,1.8
2019-05-07T02:10:03.253Z,1.7
2019-05-07T02:11:03.168Z,1.6
2019-05-07T02:12:03.268Z,1.6
2019-05-07T02:13:03.402Z,1.7
2019-05-07T02:14:03.083Z,1.6
2019-05-07T02:15:03.104Z,1.6
2019-05-07T02:16:04.402Z,1.6
2019-05-07T02:17:03.304Z,1.6
2019-05-07T02:18:02.681Z,1.6
2019-05-07T02:19:02.978Z,1.6
2019-05-07T02:20:03.053Z,1.6
2019-05-07T02:21:03.414Z,1.6
2019-05-07T02:22:03.181Z,1.5
2019-05-07T02:23:03.132Z,1.6
2019-05-07T02:24:03.555Z,1.6
2019-05-07T02:25:03.826Z,1.6
2019-05-07T02:26:03.446Z,1.4
2019-05-07T02:27:03.798Z,1.3
2019-05-07T02:28:03.595Z,1.3
2019-05-07T02:29:03.445Z,1.3
2019-05-07T02:30:04.855Z,1.3
2019-05-07T02:31:04.382Z,1.4
2019-05-07T02:32:05.158Z,1.3
2019-05-07T02:33:04.126Z,1.2
2019-05-07T02:34:03.561Z,1.1
2019-05-07T02:35:04.684Z,1
2019-05-07T02:36:03.582Z,0.9
2019-05-07T02:37:04.422Z,0.8
2019-05-07T02:38:03.529Z,0.9
2019-05-07T02:39:04.139Z,0.9
2019-05-07T02:40:04.758Z,1.1
2019-05-07T02:41:03.338Z,1.1
2019-05-07T02:42:03.936Z,1.1
2019-05-07T02:43:03.301Z,1
2019-05-07T02:44:04.548Z,1.1
2019-05-07T02:45:04.818Z,1.1
2019-05-07T02:46:32.637Z,1.1
2019-05-07T02:48:03.782Z,1.1
2019-05-07T02:49:03.562Z,1.1
2019-05-07T02:50:03.543Z,1.1
2019-05-07T02:51:04.443Z,1.1
2019-05-07T02:52:04.333Z,1.1
2019-05-07T02:53:04.548Z,1.1
2019-05-07T02:54:03.875Z,1.1
2019-05-07T02:55:04.479Z,1
2019-05-07T02:56:03.895Z,0.9
2019-05-07T02:57:03.607Z,0.8
2019-05-07T02:58:04.072Z,0.8
2019-05-07T02:59:04.433Z,0.9
2019-05-07T03:00:05.117Z,1
2019-05-07T03:01:05.423Z,1.1
2019-05-07T03:02:03.931Z,1.2
2019-05-07T03:03:04.858Z,1.2
2019-05-07T03:04:03.947Z,1.2
2019-05-07T03:05:05.718Z,1.1
2019-05-07T03:06:03.478Z,1.2
2019-05-07T03:07:04.221Z,1.3
2019-05-07T03:08:03.769Z,0.9
2019-05-07T03:09:03.501Z,0.4
2019-05-07T03:10:04.036Z,0.3
2019-05-07T03:11:03.895Z,0.4
2019-05-07T03:12:04.389Z,0.5
2019-05-07T03:13:03.590Z,0.6
2019-05-07T03:14:03.537Z,0.7
2019-05-07T03:15:04.997Z,0.8
2019-05-07T03:16:04.142Z,0.8
2019-05-07T03:17:03.409Z,0.8
2019-05-07T03:18:03.889Z,0.8
2019-05-07T03:19:04.457Z,0.7
2019-05-07T03:20:03.624Z,0.7
2019-05-07T03:21:03.787Z,0.7
2019-05-07T03:22:04.183Z,0.6
2019-05-07T03:23:03.612Z,0.5
2019-05-07T03:24:03.995Z,0.6
2019-05-07T03:25:03.841Z,0.6
2019-05-07T03:26:04.402Z,0.7
2019-05-07T03:27:03.771Z,0.7
2019-05-07T03:28:04.622Z,0.7
2019-05-07T03:29:04.190Z,0.7
2019-05-07T03:30:04.855Z,0.7
2019-05-07T03:31:06.684Z,0.6
2019-05-07T03:32:06.644Z,0.6
2019-05-07T03:33:07.997Z,0.4
2019-05-07T03:34:07.734Z,0.4
2019-05-07T03:35:08.041Z,0.4
2019-05-07T03:36:08.238Z,0.1
2019-05-07T03:37:06.933Z,0.2
2019-05-07T03:38:03.958Z,0.3
2019-05-07T03:39:03.645Z,0.3
2019-05-07T03:40:04.521Z,0.3
2019-05-07T03:41:04.084Z,0.3
2019-05-07T03:42:03.758Z,0.3
2019-05-07T03:43:06.696Z,0.4
2019-05-07T03:44:03.904Z,0.4
2019-05-07T03:45:04.076Z,0.4
2019-05-07T03:46:03.930Z,0.4
2019-05-07T03:47:06.601Z,0.4
2019-05-07T03:48:03.932Z,0.4
2019-05-07T03:49:04.236Z,0.4
2019-05-07T03:50:03.813Z,0.4
2019-05-07T03:51:04.057Z,0.4
2019-05-07T03:52:04.706Z,0.4
2019-05-07T03:53:03.654Z,0.4
2019-05-07T03:54:03.325Z,0.4
2019-05-07T03:55:04.169Z,0.2
2019-05-07T03:56:04.742Z,0.2
2019-05-07T03:57:16.025Z,0.1
2019-05-07T03:58:03.437Z,0.2
2019-05-07T03:59:03.784Z,0.2
2019-05-07T04:00:04.705Z,0.3
2019-05-07T04:01:04.910Z,0.3
2019-05-07T04:02:03.711Z,0.3
2019-05-07T04:03:03.951Z,0.3
2019-05-07T04:04:03.886Z,0.2
2019-05-07T04:05:04.707Z,0.1
2019-05-07T04:06:04.399Z,0.1
2019-05-07T04:07:03.906Z,0.1
2019-05-07T04:08:03.777Z,0.2
2019-05-07T04:09:03.687Z,0.2
2019-05-07T04:10:04.970Z,0.3
2019-05-07T04:11:04.372Z,0.3
2019-05-07T04:12:04.376Z,0.4
2019-05-07T04:13:04.858Z,0.4
2019-05-07T04:14:03.319Z,0.4
2019-05-07T04:15:03.903Z,0.4
2019-05-07T04:16:04.706Z,0.4
2019-05-07T04:17:26.581Z,0.4
2019-05-07T04:18:04.023Z,0.4
2019-05-07T04:19:04.143Z,0.3
2019-05-07T04:20:04.877Z,0.3
2019-05-07T04:21:04.419Z,0.3
2019-05-07T04:22:04.642Z,0.3
2019-05-07T04:23:04.605Z,0.3
2019-05-07T04:24:03.798Z,0.3
2019-05-07T04:25:04.846Z,0.3
2019-05-07T04:26:04.830Z,0.2
2019-05-07T04:27:04.004Z,0.3
2019-05-07T04:28:04.074Z,0.3
2019-05-07T04:29:06.564Z,0.3
2019-05-07T04:30:04.130Z,0.3
2019-05-07T04:31:03.736Z,0.3
2019-05-07T04:32:03.494Z,0.3
2019-05-07T04:33:03.816Z,0.4
2019-05-07T04:34:03.956Z,0.4
2019-05-07T04:35:04.509Z,0.4
2019-05-07T04:36:03.525Z,0.4
2019-05-07T04:37:03.470Z,0.4
2019-05-07T04:38:07.539Z,0.6
2019-05-07T04:39:03.592Z,0.6
2019-05-07T04:40:03.621Z,0.6
2019-05-07T04:41:04.125Z,0.7
2019-05-07T04:42:03.765Z,0.8
2019-05-07T04:43:03.229Z,0.8
2019-05-07T04:44:04.093Z,0.8
2019-05-07T04:45:04.632Z,0.8
2019-05-07T04:46:03.695Z,0.8
2019-05-07T04:47:04.588Z,0.8
2019-05-07T04:48:03.517Z,0.9
2019-05-07T04:49:04.329Z,0.9
2019-05-07T04:50:04.160Z,1
2019-05-07T04:51:03.802Z,1
2019-05-07T04:52:04.364Z,1
2019-05-07T04:53:03.227Z,1
2019-05-07T04:54:04.037Z,1.1
2019-05-07T04:55:04.676Z,1.1
2019-05-07T04:56:03.772Z,1.1
2019-05-07T04:57:04.084Z,1.2
2019-05-07T04:58:09.410Z,1.3
2019-05-07T04:59:03.975Z,1.3
2019-05-07T05:00:03.986Z,1.4
2019-05-07T05:01:03.601Z,1.6
2019-05-07T05:02:04.402Z,1.6
2019-05-07T05:03:03.594Z,1.6
2019-05-07T05:04:34.098Z,1.8
2019-05-07T05:06:03.379Z,1.9
2019-05-07T05:07:03.133Z,2.1
2019-05-07T05:08:04.113Z,2.3
2019-05-07T05:09:03.385Z,2.3
2019-05-07T05:10:03.530Z,2.2
2019-05-07T05:11:03.769Z,2.4
2019-05-07T05:12:03.151Z,2.6
2019-05-07T05:13:03.580Z,2.9
2019-05-07T05:14:08.194Z,3.3
2019-05-07T05:15:03.408Z,3.2
2019-05-07T05:16:03.043Z,3
2019-05-07T05:17:02.953Z,2.9
2019-05-07T05:18:02.954Z,3
2019-05-07T05:19:02.777Z,2.9
2019-05-07T05:20:03.853Z,3.1
2019-05-07T05:21:03.790Z,3.1
2019-05-07T05:22:02.903Z,3.3
2019-05-07T05:23:02.911Z,3.3
2019-05-07T05:24:03.744Z,3.3
2019-05-07T05:25:02.924Z,3.4
2019-05-07T05:26:03.563Z,3.4
2019-05-07T05:27:03.512Z,3.4
2019-05-07T05:28:03.702Z,3.4
2019-05-07T05:29:03.312Z,3.5
2019-05-07T05:30:03.742Z,3.6
2019-05-07T05:31:03.607Z,3.7
2019-05-07T05:32:03.395Z,3.8
2019-05-07T05:33:04.566Z,3.9
2019-05-07T05:34:03.381Z,3.9
2019-05-07T05:35:03.501Z,4
2019-05-07T05:36:03.343Z,4.1
2019-05-07T05:37:03.296Z,4.1
2019-05-07T05:38:03.279Z,4.1
2019-05-07T05:39:03.180Z,4.3
2019-05-07T05:40:09.124Z,4.3
2019-05-07T05:41:03.166Z,4.4
2019-05-07T05:42:03.289Z,4.5
2019-05-07T05:43:03.216Z,4.5
2019-05-07T05:44:03.049Z,4.5
2019-05-07T05:45:03.000Z,4.6
2019-05-07T05:46:03.007Z,4.7
2019-05-07T05:47:03.120Z,4.8
2019-05-07T05:48:08.857Z,4.9
2019-05-07T05:49:02.855Z,4.9
2019-05-07T05:50:02.754Z,4.9
2019-05-07T05:51:02.902Z,4.9
2019-05-07T05:52:03.901Z,5.1
2019-05-07T05:53:03.602Z,5.1
2019-05-07T05:54:02.779Z,5.1
2019-05-07T05:55:03.519Z,5.3
2019-05-07T05:56:03.475Z,5.3
2019-05-07T05:57:03.646Z,5.3
2019-05-07T05:58:03.623Z,5.4
2019-05-07T05:59:03.433Z,5.5
2019-05-07T06:00:03.525Z,5.5
2019-05-07T06:01:03.422Z,5.5
2019-05-07T06:02:06.860Z,5.5
2019-05-07T06:03:03.316Z,5.8
2019-05-07T06:04:03.515Z,5.9
2019-05-07T06:05:03.310Z,5.8
2019-05-07T06:06:03.384Z,5.9
2019-05-07T06:07:14.836Z,5.9
2019-05-07T06:08:03.929Z,5.9
2019-05-07T06:09:03.241Z,5.9
2019-05-07T06:10:03.335Z,5.9
2019-05-07T06:11:03.164Z,6.1
2019-05-07T06:12:03.040Z,6.2
2019-05-07T06:13:03.096Z,6.3
2019-05-07T06:14:03.041Z,6.3
2019-05-07T06:15:03.154Z,6.3
2019-05-07T06:16:03.284Z,6.4
2019-05-07T06:17:03.266Z,6.3
2019-05-07T06:18:21.770Z,6.3
2019-05-07T06:19:02.918Z,6.4
2019-05-07T06:20:03.265Z,6.4
2019-05-07T06:21:03.163Z,6.5
2019-05-07T06:22:02.866Z,6.5
2019-05-07T06:23:03.143Z,6.6
2019-05-07T06:24:02.824Z,6.8
2019-05-07T06:25:03.729Z,6.8
2019-05-07T06:26:05.542Z,6.8
2019-05-07T06:27:03.850Z,6.8
2019-05-07T06:28:03.806Z,6.8
2019-05-07T06:29:03.633Z,6.9
2019-05-07T06:30:05.271Z,6.9
2019-05-07T06:31:03.706Z,7
2019-05-07T06:32:03.330Z,7.3
2019-05-07T06:33:03.419Z,7.4
2019-05-07T06:34:03.349Z,7.4
2019-05-07T06:35:03.366Z,7.6
2019-05-07T06:36:03.232Z,7.5
2019-05-07T06:37:03.491Z,7.5
2019-05-07T06:38:03.593Z,7.4
2019-05-07T06:39:03.292Z,7.4
2019-05-07T06:40:03.295Z,7.4
2019-05-07T06:41:03.389Z,7.4
2019-05-07T06:42:02.963Z,7.5
2019-05-07T06:43:03.351Z,7.6
2019-05-07T06:44:03.220Z,7.9
2019-05-07T06:45:03.363Z,8.1
2019-05-07T06:46:02.865Z,8.4
2019-05-07T06:47:02.682Z,8.4
2019-05-07T06:48:03.211Z,8.5
2019-05-07T06:49:03.034Z,8.4
2019-05-07T06:50:03.583Z,8.4
2019-05-07T06:51:03.341Z,8.4
2019-05-07T06:52:03.221Z,8.3
2019-05-07T06:53:03.797Z,8.3
2019-05-07T06:54:03.106Z,8.3
2019-05-07T06:55:03.515Z,8.2
2019-05-07T06:56:03.750Z,8.2
2019-05-07T06:57:03.719Z,8.3
2019-05-07T06:58:02.869Z,8.3
2019-05-07T06:59:03.768Z,8.4
2019-05-07T07:00:03.608Z,8.4
2019-05-07T07:01:03.742Z,8.4
2019-05-07T07:02:05.921Z,8.4
2019-05-07T07:03:03.602Z,8.3
2019-05-07T07:04:03.272Z,8.4
2019-05-07T07:05:03.723Z,8.4
2019-05-07T07:06:03.542Z,8.6
2019-05-07T07:07:03.762Z,8.8
2019-05-07T07:08:03.402Z,8.8
2019-05-07T07:09:03.616Z,8.9
2019-05-07T07:10:03.424Z,8.9
2019-05-07T07:11:03.264Z,9
2019-05-07T07:12:03.392Z,8.9
2019-05-07T07:13:03.284Z,9.1
2019-05-07T07:14:03.201Z,9.1
2019-05-07T07:15:03.147Z,9.2
2019-05-07T07:16:03.501Z,9.2
2019-05-07T07:17:03.296Z,9.3
2019-05-07T07:18:03.414Z,9.4
2019-05-07T07:19:03.560Z,9.4
2019-05-07T07:20:03.153Z,9.3
2019-05-07T07:21:03.802Z,9.2
2019-05-07T07:22:03.001Z,9.3
2019-05-07T07:23:02.977Z,9.3
2019-05-07T07:24:03.819Z,9.4
2019-05-07T07:25:06.839Z,9.6
2019-05-07T07:26:03.730Z,9.8
2019-05-07T07:27:02.855Z,9.7
2019-05-07T07:28:03.849Z,9.6
2019-05-07T07:29:02.894Z,9.7
2019-05-07T07:30:03.551Z,9.7
2019-05-07T07:31:03.613Z,9.8
2019-05-07T07:32:03.751Z,9.9
2019-05-07T07:33:03.010Z,10
2019-05-07T07:34:03.451Z,10
2019-05-07T07:35:02.794Z,9.9
2019-05-07T07:36:02.839Z,10
2019-05-07T07:37:15.654Z,10.2
2019-05-07T07:38:03.663Z,10.2
2019-05-07T07:39:03.661Z,10.3
2019-05-07T07:40:03.952Z,10.3
2019-05-07T07:41:05.622Z,10.4
2019-05-07T07:42:03.449Z,10.4
2019-05-07T07:43:07.474Z,10.4
2019-05-07T07:44:03.556Z,10.4
2019-05-07T07:45:03.284Z,10.5
2019-05-07T07:46:03.447Z,10.6
2019-05-07T07:47:03.264Z,10.6
2019-05-07T07:48:03.647Z,10.6
2019-05-07T07:49:15.201Z,10.6
2019-05-07T07:50:03.217Z,10.8
2019-05-07T07:51:03.728Z,10.9
2019-05-07T07:52:03.497Z,10.7
2019-05-07T07:53:03.122Z,10.5
2019-05-07T07:54:03.322Z,10.8
2019-05-07T07:55:03.015Z,10.9
2019-05-07T07:56:03.363Z,11
2019-05-07T07:57:03.140Z,10.7
2019-05-07T07:58:03.107Z,10.7
2019-05-07T07:59:03.148Z,10.8
2019-05-07T08:00:02.981Z,10.6
2019-05-07T08:01:03.199Z,10.6
2019-05-07T08:02:02.950Z,10.9
2019-05-07T08:03:03.315Z,10.9
2019-05-07T08:04:03.086Z,11.3
2019-05-07T08:05:02.992Z,11.4
2019-05-07T08:06:02.749Z,11.4
2019-05-07T08:07:03.419Z,11.4
2019-05-07T08:08:02.954Z,11.6
2019-05-07T08:09:03.582Z,11.5
2019-05-07T08:10:03.811Z,11.6
2019-05-07T08:11:02.852Z,11.6
2019-05-07T08:12:04.289Z,12
2019-05-07T08:13:03.471Z,11.9
2019-05-07T08:14:02.813Z,11.9
2019-05-07T08:15:24.331Z,12.1
2019-05-07T08:16:03.785Z,11.9
2019-05-07T08:17:03.601Z,11.9
2019-05-07T08:18:03.663Z,11.7
2019-05-07T08:19:25.002Z,11.6
2019-05-07T08:20:03.427Z,11.9
2019-05-07T08:21:03.419Z,12
2019-05-07T08:22:03.531Z,12.1
2019-05-07T08:23:03.210Z,12.6
2019-05-07T08:24:03.149Z,12.6
2019-05-07T08:25:03.478Z,12
2019-05-07T08:26:03.001Z,11.8
2019-05-07T08:27:03.216Z,11.9
2019-05-07T08:28:03.210Z,11.9
2019-05-07T08:29:03.329Z,12.2
2019-05-07T08:30:03.254Z,12.1
2019-05-07T08:31:03.163Z,12.3
2019-05-07T08:32:02.899Z,12.5
2019-05-07T08:33:02.931Z,12.8
2019-05-07T08:34:03.205Z,12.6
2019-05-07T08:35:02.939Z,12.6
2019-05-07T08:36:02.966Z,12.9
2019-05-07T08:37:02.823Z,13.2
2019-05-07T08:38:02.968Z,13.1
2019-05-07T08:39:03.771Z,13.3
2019-05-07T08:40:03.370Z,13.4
2019-05-07T08:41:03.797Z,13.1
2019-05-07T08:42:02.916Z,13.1
2019-05-07T08:43:03.818Z,13
2019-05-07T08:44:15.630Z,13.1
2019-05-07T08:45:03.863Z,12.6
2019-05-07T08:46:03.363Z,12.4
2019-05-07T08:47:03.482Z,12.4
2019-05-07T08:48:03.527Z,12.6
2019-05-07T08:49:03.538Z,12.8
2019-05-07T08:50:03.613Z,13.1
2019-05-07T08:51:03.342Z,13.3
2019-05-07T08:52:04.129Z,13.4
2019-05-07T08:53:03.460Z,13.4
2019-05-07T08:54:03.397Z,13.2
2019-05-07T08:55:03.335Z,13.3
2019-05-07T08:56:03.478Z,13.6
2019-05-07T08:57:02.652Z,13.4
2019-05-07T08:58:03.340Z,12.8
2019-05-07T08:59:02.990Z,12.5
2019-05-07T09:00:04.939Z,12.8
2019-05-07T09:01:03.320Z,12.8
2019-05-07T09:02:03.337Z,13.3
2019-05-07T09:03:02.655Z,13.7
2019-05-07T09:04:02.654Z,13.7
2019-05-07T09:05:03.879Z,13.1
2019-05-07T09:06:03.020Z,13.2
2019-05-07T09:07:03.837Z,13.1
2019-05-07T09:08:03.740Z,13.1
2019-05-07T09:09:03.785Z,13.3
2019-05-07T09:10:03.413Z,13.4
2019-05-07T09:11:03.477Z,13
2019-05-07T09:12:03.460Z,12.8
2019-05-07T09:13:03.510Z,12.7
2019-05-07T09:14:03.346Z,12.7
2019-05-07T09:15:03.549Z,13.3
2019-05-07T09:16:03.352Z,13.1
2019-05-07T09:17:03.363Z,12.9
2019-05-07T09:18:03.114Z,12.9
2019-05-07T09:19:03.077Z,13.6
2019-05-07T09:20:03.350Z,13.8
2019-05-07T09:21:02.828Z,13.1
2019-05-07T09:22:03.145Z,13.1
2019-05-07T09:23:02.873Z,13.6
2019-05-07T09:24:02.925Z,13.6
2019-05-07T09:25:03.349Z,13.8
2019-05-07T09:26:02.937Z,14.1
2019-05-07T09:27:02.976Z,14.1
2019-05-07T09:28:03.845Z,14.4
2019-05-07T09:29:03.563Z,14.4
2019-05-07T09:30:03.833Z,14.4
2019-05-07T09:31:03.605Z,14.1
2019-05-07T09:32:03.700Z,13.8
2019-05-07T09:33:03.627Z,13.4
2019-05-07T09:34:03.250Z,13.7
2019-05-07T09:35:03.254Z,13.6
2019-05-07T09:36:03.349Z,13.3
2019-05-07T09:37:03.312Z,13.1
2019-05-07T09:38:03.413Z,13
2019-05-07T09:39:03.305Z,12.6
2019-05-07T09:40:03.369Z,12.1
2019-05-07T09:41:03.347Z,12
2019-05-07T09:42:02.900Z,11.9
2019-05-07T09:43:03.167Z,12.1
2019-05-07T09:44:03.325Z,11.9
2019-05-07T09:45:03.238Z,12
2019-05-07T09:46:02.961Z,12.1
2019-05-07T09:47:02.997Z,12.3
2019-05-07T09:48:03.226Z,12.3
2019-05-07T09:49:03.329Z,12.1
2019-05-07T09:50:09.115Z,11.9
2019-05-07T09:51:03.654Z,12.1
2019-05-07T09:52:06.205Z,12
2019-05-07T09:53:03.631Z,11.9
2019-05-07T09:54:03.717Z,11.8
2019-05-07T09:55:17.666Z,11.9
2019-05-07T09:56:03.366Z,11.6
2019-05-07T09:57:03.444Z,11.6
2019-05-07T09:58:03.641Z,11.6
2019-05-07T09:59:03.442Z,11.6
2019-05-07T10:00:03.219Z,11.6
2019-05-07T10:01:03.377Z,11.5
2019-05-07T10:02:03.085Z,11.5
2019-05-07T10:03:03.501Z,11.3
2019-05-07T10:04:03.128Z,11.2
2019-05-07T10:05:03.303Z,11.3
2019-05-07T10:06:02.988Z,11.4
2019-05-07T10:07:03.178Z,11.5
2019-05-07T10:08:02.744Z,11.5
2019-05-07T10:09:03.286Z,11.4
2019-05-07T10:10:03.489Z,11.6
2019-05-07T10:11:03.171Z,11.4
2019-05-07T10:12:03.824Z,11.5
2019-05-07T10:13:03.720Z,11.4
2019-05-07T10:14:03.651Z,11.2
2019-05-07T10:15:03.810Z,11.2
2019-05-07T10:16:07.913Z,11.2
2019-05-07T10:17:03.569Z,11.3
2019-05-07T10:18:03.412Z,11.7
2019-05-07T10:19:03.554Z,12.1
2019-05-07T10:20:22.691Z,12.2
2019-05-07T10:21:03.225Z,12.6
2019-05-07T10:22:03.514Z,12.8
2019-05-07T10:23:03.225Z,13.1
2019-05-07T10:24:03.355Z,13.1
2019-05-07T10:25:03.357Z,12.9
2019-05-07T10:26:03.397Z,12.8
2019-05-07T10:27:03.332Z,12.8
2019-05-07T10:28:02.913Z,12.6
2019-05-07T10:29:03.174Z,12.4
2019-05-07T10:30:02.897Z,12.9
2019-05-07T10:31:02.993Z,12.9
2019-05-07T10:32:02.791Z,13
2019-05-07T10:33:02.714Z,13.3
2019-05-07T10:34:03.187Z,13.2
2019-05-07T10:35:03.471Z,13.2
2019-05-07T10:36:02.988Z,13.1
2019-05-07T10:37:03.028Z,12.9
2019-05-07T10:38:02.800Z,12.6
2019-05-07T10:39:02.966Z,12.6
2019-05-07T10:40:03.349Z,12.4
2019-05-07T10:41:03.602Z,11.9
2019-05-07T10:42:03.517Z,11.8
2019-05-07T10:43:03.536Z,11.8
2019-05-07T10:44:03.641Z,11.6
2019-05-07T10:45:03.742Z,11.8
2019-05-07T10:46:03.590Z,11.7
2019-05-07T10:47:03.317Z,11.8
2019-05-07T10:48:03.548Z,11.8
2019-05-07T10:49:03.008Z,11.8
2019-05-07T10:50:03.455Z,11.9
2019-05-07T10:51:03.109Z,12
2019-05-07T10:52:03.420Z,11.9
2019-05-07T10:53:03.326Z,11.9
2019-05-07T10:54:03.455Z,11.9
2019-05-07T10:55:03.519Z,11.7
2019-05-07T10:56:03.221Z,11.7
2019-05-07T10:57:03.345Z,11.9
2019-05-07T10:58:03.264Z,12.5
2019-05-07T10:59:03.182Z,12.6
2019-05-07T11:00:03.412Z,12.5
2019-05-07T11:01:03.199Z,12.4
2019-05-07T11:02:03.192Z,12.3
2019-05-07T11:03:02.871Z,12.1
2019-05-07T11:04:03.091Z,12.1
2019-05-07T11:05:02.846Z,12.4
2019-05-07T11:06:02.742Z,12.6
2019-05-07T11:07:02.949Z,12.7
2019-05-07T11:08:03.681Z,12.7
2019-05-07T11:09:03.764Z,12.8
2019-05-07T11:10:03.947Z,12.6
2019-05-07T11:11:03.327Z,12.7
2019-05-07T11:12:03.484Z,12.7
2019-05-07T11:13:03.695Z,12.4
2019-05-07T11:14:03.143Z,12.1
2019-05-07T11:15:03.321Z,12
2019-05-07T11:16:03.578Z,12.2
2019-05-07T11:17:03.518Z,12.4
2019-05-07T11:18:03.499Z,12.5
2019-05-07T11:19:03.196Z,12.6
2019-05-07T11:20:03.238Z,12.6
2019-05-07T11:21:03.300Z,13.2
2019-05-07T11:22:03.796Z,13.5
2019-05-07T11:23:03.031Z,13.5
2019-05-07T11:24:03.683Z,13.5
2019-05-07T11:25:03.245Z,13.4
2019-05-07T11:26:02.942Z,13.1
2019-05-07T11:27:02.990Z,12.9
2019-05-07T11:28:03.056Z,12.8
2019-05-07T11:29:02.972Z,12.6
2019-05-07T11:30:03.901Z,12.6
2019-05-07T11:31:03.599Z,12.4
2019-05-07T11:32:03.622Z,12.5
2019-05-07T11:33:03.647Z,12.5
2019-05-07T11:34:03.750Z,12.5
2019-05-07T11:35:03.510Z,12.8
2019-05-07T11:36:03.439Z,13.1
2019-05-07T11:37:03.579Z,13.4
2019-05-07T11:38:24.655Z,13.8
2019-05-07T11:39:03.183Z,14.1
2019-05-07T11:40:03.722Z,14.1
2019-05-07T11:41:03.421Z,14.3
2019-05-07T11:42:03.375Z,14.4
2019-05-07T11:43:02.969Z,14.3
2019-05-07T11:44:03.261Z,14.4
2019-05-07T11:45:03.312Z,14.3
2019-05-07T11:46:03.077Z,14.1
2019-05-07T11:47:03.527Z,13.9
2019-05-07T11:48:04.541Z,13.6
2019-05-07T11:49:03.051Z,13.6
2019-05-07T11:50:03.421Z,13.5
2019-05-07T11:51:04.578Z,13.6
2019-05-07T11:52:03.134Z,13.9
2019-05-07T11:53:03.092Z,14.4
2019-05-07T11:54:02.896Z,14.6
2019-05-07T11:55:03.317Z,14.7
2019-05-07T11:56:03.815Z,14.9
2019-05-07T11:57:02.998Z,14.3
2019-05-07T11:58:03.577Z,14.3
2019-05-07T11:59:03.645Z,14.6
2019-05-07T12:00:03.058Z,14.3
2019-05-07T12:01:04.311Z,14
2019-05-07T12:02:03.849Z,14
2019-05-07T12:03:03.614Z,13.6
2019-05-07T12:04:03.721Z,13.8
2019-05-07T12:05:03.414Z,13.8
2019-05-07T12:06:03.423Z,13.4
2019-05-07T12:07:03.627Z,13.4
2019-05-07T12:08:03.763Z,13.4
2019-05-07T12:09:03.589Z,13
2019-05-07T12:10:05.189Z,12.9
2019-05-07T12:11:03.300Z,12.9
2019-05-07T12:12:03.432Z,12.6
2019-05-07T12:13:03.419Z,12.5
2019-05-07T12:14:02.979Z,12.7
2019-05-07T12:15:03.520Z,12.8
2019-05-07T12:16:03.336Z,12.9
2019-05-07T12:17:03.129Z,12.9
2019-05-07T12:18:03.421Z,13.1
2019-05-07T12:19:03.037Z,13.1
2019-05-07T12:20:03.098Z,12.8
2019-05-07T12:21:24.088Z,12.6
2019-05-07T12:22:02.908Z,12.7
2019-05-07T12:23:03.189Z,12.8
2019-05-07T12:24:02.797Z,12.9
2019-05-07T12:25:03.702Z,12.6
2019-05-07T12:26:03.182Z,12.6
2019-05-07T12:27:03.531Z,13
2019-05-07T12:28:02.921Z,13.1
2019-05-07T12:29:03.691Z,13.1
2019-05-07T12:30:03.670Z,13.2
2019-05-07T12:31:03.691Z,13.2
2019-05-07T12:32:02.978Z,13.1
2019-05-07T12:33:03.424Z,12.8
2019-05-07T12:34:03.554Z,12.7
2019-05-07T12:35:03.597Z,12.9
2019-05-07T12:36:03.517Z,13
2019-05-07T12:37:03.241Z,13
2019-05-07T12:38:03.514Z,12.9
2019-05-07T12:39:03.277Z,12.8
2019-05-07T12:40:03.248Z,12.5
2019-05-07T12:41:02.862Z,12.6
2019-05-07T12:42:03.075Z,12.7
2019-05-07T12:43:03.454Z,12.8
2019-05-07T12:44:02.942Z,12.8
2019-05-07T12:45:03.036Z,12.7
2019-05-07T12:46:03.001Z,12.5
2019-05-07T12:47:03.096Z,12.4
2019-05-07T12:48:03.670Z,12.8
2019-05-07T12:49:03.573Z,13.1
2019-05-07T12:50:03.247Z,13.2
2019-05-07T12:51:03.347Z,13.3
2019-05-07T12:52:02.975Z,13.5
2019-05-07T12:53:03.618Z,13.8
2019-05-07T12:54:03.077Z,13.8
2019-05-07T12:55:03.489Z,13.4
2019-05-07T12:56:03.798Z,13.4
2019-05-07T12:57:02.920Z,13.2
2019-05-07T12:58:03.025Z,13.4
2019-05-07T12:59:02.964Z,13.2
2019-05-07T13:00:03.883Z,12.9
2019-05-07T13:01:03.791Z,12.8
2019-05-07T13:02:40.006Z,12.9
2019-05-07T13:03:03.553Z,12.9
2019-05-07T13:04:03.584Z,13.1
2019-05-07T13:05:03.534Z,13.2
2019-05-07T13:06:03.602Z,13
2019-05-07T13:07:03.332Z,12.9
2019-05-07T13:08:03.601Z,13
2019-05-07T13:09:03.255Z,13.1
2019-05-07T13:10:03.730Z,13.1
2019-05-07T13:11:03.611Z,12.9
2019-05-07T13:12:03.344Z,13
2019-05-07T13:13:03.391Z,13.3
2019-05-07T13:14:03.494Z,13.3
2019-05-07T13:15:03.266Z,13.7
2019-05-07T13:16:03.306Z,13.8
2019-05-07T13:17:03.293Z,14
2019-05-07T13:18:03.039Z,14.1
2019-05-07T13:19:02.891Z,13.9
2019-05-07T13:20:03.454Z,13.8
2019-05-07T13:21:03.100Z,13.6
2019-05-07T13:22:03.817Z,13.4
2019-05-07T13:23:03.158Z,13.4
2019-05-07T13:24:02.976Z,13.9
2019-05-07T13:25:03.107Z,14.2
2019-05-07T13:26:02.885Z,14.3
2019-05-07T13:27:03.476Z,14.6
2019-05-07T13:28:02.968Z,14.8
2019-05-07T13:29:03.768Z,14.6
2019-05-07T13:30:03.655Z,14.7
2019-05-07T13:31:02.938Z,14.4
2019-05-07T13:32:03.675Z,14.6
2019-05-07T13:33:02.752Z,14.8
2019-05-07T13:34:03.785Z,15.1
2019-05-07T13:35:03.570Z,15.1
2019-05-07T13:36:03.442Z,15.3
2019-05-07T13:37:03.498Z,15.2
2019-05-07T13:38:03.544Z,15.3
2019-05-07T13:39:03.163Z,15.3